Aérodrome :
LOGIN :

S'inscrire | Disclaimer

   EN    FR    IT 

 










Légende :    VFR   VFR Marginal   IFR   IFR Intensif   IFR Très Intensif
Visi : 
Plafond : 
>= 8 km
>= 3000ft
5 à 8 km
1000 à 3000 ft
1500m à 5 km
500 à 1000 ft
800 à 1500m
200 à 500 ft
< 800m
< 200 ft
Symboles :   Orages  Brouillard  Fortes neiges  Fortes précipitations  Vent > 20 kt
SIGMETs :   Divers  Orages  Givrage  Turbulence  Onde Orograph.  Cendres Volcan.







- Altitude de l'aérodrome : 17 ft
- Code IATA : MPL
- Voir les cartes d'approche


LFMT - Montpellier Méditerranée

DERNIER METAR :
  • 191830Z AUTO 34009KT CAVOK 18/05 Q1021 NOSIG

METARs EXPIRÉS :
  • 191800Z AUTO 33014KT 300V360 CAVOK 18/05 Q1020 NOSIG
  • 191730Z AUTO 34016KT CAVOK 19/05 Q1020 BECMG 29006KT
  • 191700Z AUTO 31015KT CAVOK 20/05 Q1019 NOSIG
  • 191630Z AUTO 32019KT CAVOK 20/05 Q1019 BECMG 29006KT
  • 191600Z AUTO 31020KT CAVOK 20/04 Q1018 TEMPO 32015G25KT

TAF TAF LFMT
Valide du 19 à 15h jusqu'au 20 à 15h UTC


191400Z 1915/2015 34016KT CAVOK
TEMPO 1915/1917 32015G25KT
BECMG 1918/1921 29006KT
TEMPO 2009/2013 36012KT
BECMG 2014/2015 21012KT
ATIS : +33 4 67 13 11 70
Pas de NOTAMs connus pour ce terrain.
3 SIGMETs publiés pour la FIR Marseille (LFMM) :
 
Turbulence forte
LFMM SIGMET 9 VALID 191600/192000 LFPW
LFMM MARSEILLE FIR/UIR SEV TURB FCST WI N4130 E00500 - N4400 E00500 - N4200 E00815 - N4045 E00715 SFC/FL050 STNR NC=
Turbulence forte
LFMM SIGMET 7 VALID 191600/192000 LFPW
LFMM MARSEILLE FIR/UIR SEV TURB FCST WI N4130 E00530 - N4400 E00330 - N4415 E00515 - N4200 E00700 FL200/320 MOV SE 60KT NC=
Orages noyés dans la masse
LFMM SIGMET 11 VALID 191800/192000 LFPW
LFMM MARSEILLE FIR/UIR EMBD TS OBS WI N4315 E00945 - N4115 E00945 - N4115 E00845 - N4245 E00830 TOP FL300 STNR NC=



MET'MAP, la Météo Aéronautique d'un coup d'oeil ! - Copyright ORBIFLY Décembre 2007 - Disclaimer

ORBIFLY MET'MAP TEAM :

Programmation & Développement : Alexandra Zaïnal
Conception & Développement : Baudouin d'Aumeries
Co-Programmation & Développement : Marc-Olivier Méhu
Soutien technique & logistique : Manuel Goepfert

Contact : metmap@orbifly.com




SOURCES & CREDITS :

   NOAA